Шереметьево

Карта отелей и гостиниц, располагающихся рядом с аэропортом Шереметьево :

Шереметьево
Москва
Московская область 55° 58' 20.64" N, 37° 24' 46.98" E
Код аэродрома ИКАО
UUEE
Код аэродрома RU
УУЕЕ
Координаты
N55.97240° E037.41305°
Превышение над уровнем моря
192
Основная полоса
06R/24L
Курс магнитный
064,2/244,2
Длина основной ВПП
3700
Ширина основной ВПП
60
Покрытие основной ВПП
Твёрдое
Освещение ВПП
Постоянное
Тип: 
Аэродром
Класс аэродрома: 
Международный
Принадлежность: 
ГА
Статус: 
Действующий
Сайт: 
http://www.svo.aero
E-mail аэродрома: 
caon@sheremetyevo-airport.ru
Страна: 
Россия
Регион: 
Московская область
Город: 
Москва
Дополнительная информация: 
Оператор: АО «Международный аэропорт Шереметьево». Крупнейший российский аэропорт по обслуживанию регулярных международных рейсов.
Погода: 

Авиационная погода в Москва - Шереметьево

Погода METAR: 
UUEE 291030Z 21004MPS 170V240 9999 SCT050CB 12/06 Q1010 R24L/290051 R24C/290051 NOSIG
Время наблюдения
2022-05-29T10:30:00Z
Температура C
12.0
Точка росы
6.0
Направление ветра
210
Скорость ветра (узлы)
8
Метео видимость
6.21
Облачность
SCT
Нижняя граница облачности (футы)
5000
Явления погоды
Условия полета
VFR
Аэропорт подробнее: 
SCT – разбросанная отдельная облачность;


Найти трансфер

С помощью этой формы Вы можете найти трансфер из аэропорта Шереметьево в город, аэропорт или вокзал:

Погода в аэропортах:

Авиационная погода в аэропорту Имени Германа Титова

Регион: 
Погода METAR: 
UNBB 291030Z 31005MPS 9999 -RA BKN022 13/12 Q1015 R24/190058 NOSIG RMK QFE739
Время наблюдения
2022-05-29T10:30:00Z
Температура C
13.0
Точка росы
12.0
Направление ветра
310
Скорость ветра (узлы)
10
Метео видимость
6.21
Облачность
BKN
Нижняя граница облачности (футы)
2200
Явления погоды
-RA
Условия полета
MVFR
Аэропорт подробнее: 
BKN – значительная (рассеянная, разорванная) облачность;
-RA - слабый дождь;

Авиационная погода в Миккели

Регион: 
Погода METAR: 
EFMI 291020Z AUTO 19006KT 160V230 9999 -SHRA //////CB 13/10 Q1004
Время наблюдения
2022-05-29T10:20:00Z
Температура C
13.0
Точка росы
10.0
Направление ветра
190
Скорость ветра (узлы)
6
Метео видимость
6.21
Облачность
Нижняя граница облачности (футы)
Явления погоды
-SHRA
Условия полета
-SHRA - слабый ливневой дождь;

Авиационная погода в Богашево

Регион: 
Погода METAR: 
UNTT 291030Z 22002MPS 9999 -RA OVC048 16/11 Q1010 R21/190055 NOSIG RMK QFE742
Время наблюдения
2022-05-29T10:30:00Z
Температура C
16.0
Точка росы
11.0
Направление ветра
220
Скорость ветра (узлы)
4
Метео видимость
6.21
Облачность
OVC
Нижняя граница облачности (футы)
4800
Явления погоды
-RA
Условия полета
VFR
Аэропорт подробнее: 
OVC – сплошная облачность;
-RA - слабый дождь;

Авиационная погода в Куопио

Регион: 
Погода METAR: 
EFKU 291020Z AUTO 21003KT 050V140 9999 VCSH FEW033 //////CB 15/10 Q1004
Время наблюдения
2022-05-29T10:20:00Z
Температура C
15.0
Точка росы
10.0
Направление ветра
210
Скорость ветра (узлы)
3
Метео видимость
6.21
Облачность
FEW
Нижняя граница облачности (футы)
3300
Явления погоды
VCSH
Условия полета
VFR
FEW – незначительная облачность;